createdAt,value
2024-02-21T12:24:26.572Z,100324.97
2024-02-21T12:26:00.724Z,100328.88
2024-02-21T12:27:32.621Z,100318.59
2024-02-21T12:29:04.688Z,100317.84
2024-02-21T12:30:39.558Z,100309.75
2024-02-21T12:32:11.573Z,100301.63
2024-02-21T12:33:44.651Z,100292.25
2024-02-21T12:35:16.801Z,100289.03
2024-02-21T12:36:48.802Z,100273.34
2024-02-21T12:38:22.132Z,100274.59
2024-02-21T12:39:54.004Z,100271.72
2024-02-21T12:41:28.132Z,100280.72
2024-02-21T12:43:04.141Z,100267.53
2024-02-21T12:44:36.056Z,100271.47
2024-02-21T12:46:09.259Z,100271.22
2024-02-21T12:47:41.675Z,100268.34
2024-02-21T12:49:13.728Z,100274.34
2024-02-21T12:50:52.751Z,100262.53
2024-02-21T12:52:25.222Z,100261.28
2024-02-21T12:53:57.561Z,100255.75
2024-02-21T12:55:29.460Z,100249.94
2024-02-21T12:57:04.441Z,100250.53
2024-02-21T12:58:36.372Z,100243.69
2024-02-21T13:00:10.333Z,100243.16
2024-02-21T13:01:42.547Z,100238.31
2024-02-21T13:03:15.486Z,100234.22
2024-02-21T13:04:47.347Z,100238.34
2024-02-21T13:06:20.401Z,100232.84
2024-02-21T13:07:52.662Z,100225.31
2024-02-21T13:09:24.552Z,100226.72
2024-02-21T13:10:56.616Z,100227.44
2024-02-21T13:12:29.093Z,100214.63
2024-02-21T13:14:01.013Z,100208.25
2024-02-21T13:15:32.915Z,100221.50
2024-02-21T13:17:04.949Z,100207.81
2024-02-21T13:18:39.294Z,100208.53
2024-02-21T13:20:12.454Z,100209.38
2024-02-21T13:21:44.378Z,100207.53
2024-02-21T13:23:16.247Z,100203.97
2024-02-21T13:24:48.250Z,100200.28
2024-02-21T13:26:21.535Z,100190.47
2024-02-21T13:27:53.421Z,100196.88
2024-02-21T13:29:25.304Z,100185.34
2024-02-21T13:30:57.315Z,100181.91
2024-02-21T13:32:29.230Z,100182.63
2024-02-21T13:34:01.254Z,100181.78
2024-02-21T13:35:33.306Z,100182.63
2024-02-21T13:37:06.014Z,100167.25
2024-02-21T13:38:37.838Z,100169.13
2024-02-21T13:40:14.873Z,100167.41
2024-02-21T13:41:48.064Z,100161.28
2024-02-21T13:43:20.018Z,100152.31
2024-02-21T13:44:52.023Z,100152.16
2024-02-21T13:46:23.950Z,100153.19
2024-02-21T13:47:58.536Z,100145.06
2024-02-21T13:49:31.781Z,100140.50
2024-02-21T13:51:04.172Z,100135.09
2024-02-21T13:52:36.543Z,100141.06
2024-02-21T13:54:10.897Z,100124.72
2024-02-21T13:55:45.019Z,100125.41
2024-02-21T13:57:16.909Z,100119.88
2024-02-21T13:58:49.025Z,100116.06
2024-02-21T14:00:21.491Z,100112.06
2024-02-21T14:01:53.483Z,100108.06
2024-02-21T14:03:27.217Z,100110.34
2024-02-21T14:04:59.584Z,100109.78
2024-02-21T14:06:32.024Z,100110.09
2024-02-21T14:08:04.312Z,100103.94
2024-02-21T14:09:36.357Z,100104.94
2024-02-21T14:11:08.822Z,100100.06
2024-02-21T14:12:41.556Z,100105.03
2024-02-21T14:14:13.504Z,100102.59
2024-02-21T14:15:47.515Z,100103.00
2024-02-21T14:17:19.977Z,100103.41
2024-02-21T14:18:51.845Z,100109.09
2024-02-21T14:20:23.809Z,100097.97
2024-02-21T14:21:55.711Z,100089.41
2024-02-21T14:23:27.547Z,100090.81
2024-02-21T14:24:59.543Z,100085.81
2024-02-21T14:26:32.414Z,100081.81
2024-02-21T14:28:04.492Z,100077.66
2024-02-21T14:29:36.486Z,100081.59
2024-02-21T14:31:10.333Z,100082.13
2024-02-21T14:32:45.673Z,100081.53
2024-02-21T14:34:18.315Z,100075.72
2024-02-21T14:35:50.147Z,100083.22
2024-02-21T14:37:23.060Z,100079.75
2024-02-21T14:38:54.961Z,100080.00
2024-02-21T14:40:26.835Z,100076.66
2024-02-21T14:41:58.692Z,100078.78
2024-02-21T14:43:30.650Z,100074.44
2024-02-21T14:45:05.725Z,100066.69
2024-02-21T14:46:39.786Z,100073.50
2024-02-21T14:48:11.750Z,100061.34
2024-02-21T14:49:44.980Z,100061.19
2024-02-21T14:51:16.867Z,100064.59
2024-02-21T14:52:48.778Z,100063.44
2024-02-21T14:54:21.209Z,100068.69
2024-02-21T14:55:53.126Z,100060.41
2024-02-21T14:57:26.380Z,100070.25
2024-02-21T14:59:04.058Z,100059.56
2024-02-21T15:00:40.868Z,100057.00
2024-02-21T15:02:12.784Z,100056.31
2024-02-21T15:03:44.882Z,100053.91
2024-02-21T15:05:16.780Z,100056.09
2024-02-21T15:06:49.904Z,100044.69
2024-02-21T15:08:21.756Z,100043.59
2024-02-21T15:09:53.963Z,100048.78
2024-02-21T15:11:25.980Z,100035.00
2024-02-21T15:12:57.991Z,100036.63
2024-02-21T15:14:29.870Z,100042.66
2024-02-21T15:16:01.708Z,100035.16
2024-02-21T15:17:33.621Z,100046.47
2024-02-21T15:19:05.522Z,100039.94
2024-02-21T15:20:38.407Z,100043.91
2024-02-21T15:22:14.756Z,100033.69
2024-02-21T15:23:46.609Z,100036.16
2024-02-21T15:25:19.335Z,100039.47
2024-02-21T15:26:51.311Z,100037.50
2024-02-21T15:28:23.284Z,100038.28
2024-02-21T15:29:56.073Z,100030.88
2024-02-21T15:31:27.960Z,100031.63
2024-02-21T15:33:04.311Z,100031.69
2024-02-21T15:34:36.452Z,100030.69
2024-02-21T15:36:08.729Z,100023.34
2024-02-21T15:37:41.119Z,100017.81
2024-02-21T15:39:13.638Z,100016.94
2024-02-21T15:40:45.532Z,100011.56
2024-02-21T15:42:17.443Z,99998.94
2024-02-21T15:43:49.407Z,100000.78
2024-02-21T15:45:21.696Z,99996.28
2024-02-21T15:46:54.578Z,99989.16
2024-02-21T15:48:26.919Z,99983.75
2024-02-21T15:50:00.533Z,99979.19
2024-02-21T15:51:32.487Z,99976.66
2024-02-21T15:53:04.699Z,99972.25
2024-02-21T15:54:37.662Z,99963.28
2024-02-21T15:56:09.637Z,99959.84
2024-02-21T15:57:41.537Z,99965.34
2024-02-21T15:59:14.151Z,99960.25
2024-02-21T16:00:46.514Z,99956.81
2024-02-21T16:02:18.755Z,99952.50
2024-02-21T16:03:50.788Z,99949.22
2024-02-21T16:05:23.260Z,99948.31
2024-02-21T16:06:55.265Z,99946.72
2024-02-21T16:08:27.131Z,99944.81
2024-02-21T16:09:59.006Z,99938.66
2024-02-21T16:11:30.908Z,99938.72
2024-02-21T16:13:02.973Z,99942.19
2024-02-21T16:14:35.218Z,99932.25
2024-02-21T16:16:07.366Z,99936.31
2024-02-21T16:17:41.002Z,99926.59
2024-02-21T16:19:12.993Z,99927.13
2024-02-21T16:20:44.964Z,99919.97
2024-02-21T16:22:16.827Z,99922.44
2024-02-21T16:23:48.694Z,99916.97
2024-02-21T16:25:21.644Z,99914.09
2024-02-21T16:26:53.785Z,99914.88
2024-02-21T16:28:26.687Z,99913.91
2024-02-21T16:29:58.609Z,99910.97
2024-02-21T16:31:30.926Z,99909.06
2024-02-21T16:33:03.084Z,99904.44
2024-02-21T16:34:35.202Z,99909.84
2024-02-21T16:36:08.919Z,99901.66
2024-02-21T16:37:41.096Z,99904.16
2024-02-21T16:39:13.228Z,99905.00
2024-02-21T16:40:45.525Z,99905.63
2024-02-21T16:42:17.419Z,99905.50
2024-02-21T16:43:49.870Z,99916.88
2024-02-21T16:45:22.801Z,99908.56
2024-02-21T16:46:55.350Z,99905.63
2024-02-21T16:48:27.493Z,99898.91
2024-02-21T16:49:59.622Z,99898.78
2024-02-21T16:51:31.816Z,99903.00
2024-02-21T16:53:05.046Z,99902.75
2024-02-21T16:54:37.126Z,99901.53
2024-02-21T16:56:09.241Z,99897.56
2024-02-21T16:57:41.190Z,99895.63
2024-02-21T16:59:13.175Z,99896.94
2024-02-21T17:00:45.046Z,99898.41
2024-02-21T17:02:17.039Z,99889.09
2024-02-21T17:03:50.210Z,99885.78
2024-02-21T17:05:26.558Z,99883.47
2024-02-21T17:06:59.238Z,99883.69
2024-02-21T17:08:34.535Z,99874.16
2024-02-21T17:10:06.711Z,99871.72
2024-02-21T17:11:38.735Z,99867.44
2024-02-21T17:13:10.640Z,99872.28
2024-02-21T17:14:44.449Z,99876.91
2024-02-21T17:16:17.459Z,99878.00
2024-02-21T17:17:50.087Z,99870.09
2024-02-21T17:19:22.110Z,99867.72
2024-02-21T17:20:54.094Z,99868.72
2024-02-21T17:22:25.977Z,99867.09
2024-02-21T17:23:57.810Z,99866.50
2024-02-21T17:25:29.997Z,99865.00
2024-02-21T17:27:01.868Z,99864.16
2024-02-21T17:28:33.877Z,99860.09
2024-02-21T17:30:07.287Z,99865.56
2024-02-21T17:31:39.215Z,99854.44
2024-02-21T17:33:11.335Z,99855.78
2024-02-21T17:34:43.426Z,99856.94
2024-02-21T17:36:15.348Z,99866.19
2024-02-21T17:37:47.227Z,99875.63
2024-02-21T17:39:19.666Z,99868.78
2024-02-21T17:40:52.424Z,99857.53
2024-02-21T17:42:25.749Z,99853.59
2024-02-21T17:43:57.728Z,99853.91
2024-02-21T17:45:29.721Z,99847.19
2024-02-21T17:47:01.728Z,99839.47
2024-02-21T17:48:34.779Z,99843.47
2024-02-21T17:50:07.321Z,99833.19
2024-02-21T17:51:39.216Z,99835.34
2024-02-21T17:53:11.328Z,99832.13
2024-02-21T17:54:45.734Z,99836.09
2024-02-21T17:56:19.168Z,99838.38
2024-02-21T17:57:51.131Z,99828.94
2024-02-21T17:59:23.000Z,99818.56
2024-02-21T18:00:59.075Z,99821.69
2024-02-21T18:02:31.081Z,99822.84
2024-02-21T18:04:03.309Z,99821.34
2024-02-21T18:05:35.304Z,99815.47
2024-02-21T18:07:07.319Z,99806.91
2024-02-21T18:08:40.277Z,99801.91
2024-02-21T18:10:13.171Z,99801.25
2024-02-21T18:11:46.834Z,99807.88
2024-02-21T18:13:18.817Z,99809.91
2024-02-21T18:14:51.986Z,99806.59
2024-02-21T18:16:25.342Z,99805.72
2024-02-21T18:17:58.529Z,99804.22
2024-02-21T18:19:35.354Z,99794.50
2024-02-21T18:21:08.256Z,99797.25
2024-02-21T18:22:40.215Z,99786.69
2024-02-21T18:24:12.181Z,99781.34
2024-02-21T18:25:44.280Z,99778.47
2024-02-21T18:27:16.148Z,99777.47
2024-02-21T18:28:48.074Z,99774.38
2024-02-21T18:30:20.046Z,99772.25
2024-02-21T18:31:51.951Z,99771.72
2024-02-21T18:33:24.293Z,99766.78
2024-02-21T18:34:56.644Z,99768.06
2024-02-21T18:36:29.477Z,99769.34
2024-02-21T18:38:03.514Z,99773.19
2024-02-21T18:39:35.441Z,99769.94
2024-02-21T18:41:09.566Z,99765.03
2024-02-21T18:42:44.376Z,99760.94
2024-02-21T18:44:16.306Z,99758.78
2024-02-21T18:45:48.426Z,99746.66
2024-02-21T18:47:21.591Z,99751.69
2024-02-21T18:48:53.528Z,99753.06
2024-02-21T18:50:26.524Z,99751.00
2024-02-21T18:51:58.555Z,99745.22
2024-02-21T18:53:30.393Z,99738.53
2024-02-21T18:55:07.088Z,99737.97
2024-02-21T18:56:39.370Z,99742.13
2024-02-21T18:58:11.237Z,99731.94
2024-02-21T18:59:43.129Z,99731.59
2024-02-21T19:01:16.632Z,99725.78
2024-02-21T19:02:48.865Z,99720.81
2024-02-21T19:04:20.786Z,99716.94
2024-02-21T19:05:52.782Z,99715.59
2024-02-21T19:07:24.708Z,99707.19
2024-02-21T19:08:56.988Z,99708.81
2024-02-21T19:10:29.248Z,99697.84
2024-02-21T19:12:01.548Z,99698.47
2024-02-21T19:13:33.792Z,99696.38
2024-02-21T19:15:06.228Z,99695.06
2024-02-21T19:16:38.509Z,99680.44
2024-02-21T19:18:13.015Z,99688.25
2024-02-21T19:19:45.772Z,99680.81
2024-02-21T19:21:18.102Z,99671.56
2024-02-21T19:22:50.040Z,99666.81
2024-02-21T19:24:21.947Z,99664.75
2024-02-21T19:25:54.473Z,99664.13
2024-02-21T19:27:26.339Z,99659.25
2024-02-21T19:28:58.452Z,99648.16
2024-02-21T19:30:30.334Z,99648.75
2024-02-21T19:32:02.300Z,99652.28
2024-02-21T19:33:34.464Z,99650.44
2024-02-21T19:35:07.094Z,99654.47
2024-02-21T19:36:39.855Z,99647.88
2024-02-21T19:38:11.860Z,99643.00
2024-02-21T19:39:43.731Z,99643.50
2024-02-21T19:41:16.641Z,99643.25
2024-02-21T19:42:48.823Z,99644.81
2024-02-21T19:44:23.185Z,99645.41
2024-02-21T19:45:55.175Z,99638.09
2024-02-21T19:47:27.194Z,99632.63
2024-02-21T19:48:59.135Z,99631.38
2024-02-21T19:50:34.432Z,99619.56
2024-02-21T19:52:06.572Z,99609.53
2024-02-21T19:53:38.876Z,99608.66
2024-02-21T19:55:10.893Z,99599.63
2024-02-21T19:56:42.762Z,99605.97
2024-02-21T19:58:15.093Z,99603.19
2024-02-21T19:59:49.345Z,99596.84
2024-02-21T20:01:21.557Z,99600.38
2024-02-21T20:02:53.806Z,99600.38
2024-02-21T20:04:25.668Z,99610.09
2024-02-21T20:05:57.855Z,99601.09
2024-02-21T20:07:29.774Z,99603.78
2024-02-21T20:09:07.329Z,99604.75
2024-02-21T20:10:39.487Z,99609.16
2024-02-21T20:12:11.541Z,99607.31
2024-02-21T20:13:43.594Z,99607.31
2024-02-21T20:15:15.616Z,99607.31
2024-02-21T20:16:48.309Z,99602.78
2024-02-21T20:18:20.502Z,99606.47
2024-02-21T20:19:52.860Z,99610.09
2024-02-21T20:21:24.773Z,99599.63
2024-02-21T20:22:57.020Z,99596.94
2024-02-21T20:24:35.879Z,99594.41
2024-02-21T20:26:12.292Z,99590.28
2024-02-21T20:27:45.235Z,99595.03
2024-02-21T20:29:18.385Z,99590.88
2024-02-21T20:30:50.393Z,99583.94
2024-02-21T20:32:22.215Z,99583.34
2024-02-21T20:33:54.714Z,99583.59
2024-02-21T20:35:27.506Z,99581.16
2024-02-21T20:36:59.566Z,99582.53
2024-02-21T20:38:31.653Z,99575.56
2024-02-21T20:40:08.027Z,99577.66
2024-02-21T20:41:39.965Z,99569.97
2024-02-21T20:43:12.902Z,99570.25
2024-02-21T20:44:45.490Z,99558.88
2024-02-21T20:46:18.287Z,99554.66
2024-02-21T20:47:50.149Z,99551.38
2024-02-21T20:49:22.228Z,99557.09
2024-02-21T20:50:54.160Z,99552.97
2024-02-21T20:52:27.337Z,99557.59
2024-02-21T20:53:59.244Z,99561.34
2024-02-21T20:55:32.312Z,99543.72
2024-02-21T20:57:04.719Z,99534.94
2024-02-21T20:58:36.712Z,99535.19
